Airport
Ashgabat Airport (UTAA)

 UTAA / ASB
Central Asia CFPU
Ashkhabad (UTAA)
Ashkhabad (UTAA)
 37.98680, 58.36100  / 692 ft

 UTAA 181800Z 28004KT 9999 SCT100 27/13 Q1017 R88/70D NOSIG
 TAF UTAA 181048Z 1812/1912 29018KT 6000 SCT050CB TEMPO 1812/1815 32018G28KT 3000 BLDU TEMPO 1818/1902 22014KT
UTAA_aip_1705
show charts
Scenery title Scenery type Flight Simulator 9 Flight Simulator X Prepar3D v2 Prepar3D v3 Prepar3D v4 xPlane
UTAA for FS9 ver.1.0 freeware
UTAA for FSX ver1.0.2 freeware
UTAA for P3Dv2/3/4 ver1.0.2 freeware
UTAA for X-Plane11 freeware

 

 



2019 © VATRUS division (Privacy Policy)